Time;durP1;ratioP1;P1;durP2;ratioP2;P2;SDS_P1;SDS_P2;PMS_P1;PMS_P2;Temp;Humidity;BMP_temperature;BMP_pressure;BME280_temperature;BME280_humidity;BME280_pressure;Samples;Min_cycle;Max_cycle;Signal;HPM_P1;HPM_P2
2021/06/21 00:09:40;;;;;;;5.20;2.53;;;24.60;60.00;;;;;;20776021;23;20058;-20
2021/06/21 00:19:41;;;;;;;4.60;2.47;;;24.50;59.80;;;;;;20768415;28;20095;-19
2021/06/21 00:29:42;;;;;;;6.00;2.07;;;24.50;59.70;;;;;;20759762;28;20053;-19
2021/06/21 00:39:43;;;;;;;6.33;2.70;;;24.40;59.80;;;;;;20746709;28;20482;-19
2021/06/21 00:49:44;;;;;;;6.90;1.77;;;24.40;60.40;;;;;;20758316;28;20026;-19
2021/06/21 00:59:45;;;;;;;7.22;2.53;;;24.40;60.90;;;;;;20745030;28;20030;-20
2021/06/21 01:09:47;;;;;;;5.13;2.95;;;24.40;61.70;;;;;;20744613;28;20040;-19
2021/06/21 01:19:51;;;;;;;11.60;2.72;;;24.40;62.00;;;;;;20756088;28;20037;-19
2021/06/21 01:30:06;;;;;;;5.13;1.92;;;24.50;62.50;;;;;;20741741;28;20045;-20
2021/06/21 01:40:08;;;;;;;3.35;2.40;;;24.40;62.70;;;;;;20741740;28;20160;-20
2021/06/21 01:50:10;;;;;;;3.97;2.50;;;24.40;62.80;;;;;;20742380;28;20018;-20
2021/06/21 02:00:11;;;;;;;4.38;2.15;;;24.40;63.40;;;;;;20742012;28;20088;-20
2021/06/21 02:10:13;;;;;;;4.28;3.00;;;24.50;63.50;;;;;;20740467;28;20437;-21
2021/06/21 02:20:15;;;;;;;3.92;2.50;;;24.50;63.90;;;;;;20740398;28;20061;-20
2021/06/21 02:30:16;;;;;;;4.20;2.35;;;24.40;64.30;;;;;;20753418;28;20028;-20
2021/06/21 02:40:17;;;;;;;5.07;3.40;;;24.50;64.50;;;;;;20758648;28;20418;-20
2021/06/21 02:50:18;;;;;;;5.53;3.38;;;24.50;64.60;;;;;;20775512;28;20026;-20
2021/06/21 03:00:19;;;;;;;7.35;3.78;;;24.50;64.80;;;;;;20769107;28;20109;-20
2021/06/21 03:10:23;;;;;;;7.85;3.03;;;24.50;64.60;;;;;;20754617;28;20038;-20
2021/06/21 03:20:23;;;;;;;4.90;3.58;;;24.60;64.80;;;;;;20762757;28;20439;-20
2021/06/21 03:30:24;;;;;;;4.47;2.97;;;24.60;65.00;;;;;;20760205;28;20044;-20
2021/06/21 03:40:25;;;;;;;4.93;2.90;;;24.50;65.00;;;;;;20773256;28;20629;-20
2021/06/21 03:50:25;;;;;;;5.55;2.95;;;24.60;65.30;;;;;;20776923;28;20176;-20
2021/06/21 04:00:29;;;;;;;5.53;2.63;;;24.50;65.20;;;;;;20778115;28;20465;-21
2021/06/21 04:10:30;;;;;;;7.65;3.30;;;24.50;65.60;;;;;;20766537;28;20566;-20
2021/06/21 04:20:30;;;;;;;4.00;2.30;;;24.50;65.60;;;;;;20767898;28;20061;-20
2021/06/21 04:30:31;;;;;;;3.22;2.10;;;24.50;65.90;;;;;;20766021;28;20883;-20
2021/06/21 04:40:35;;;;;;;3.10;2.25;;;24.50;65.90;;;;;;20768110;28;20026;-20
2021/06/21 04:50:36;;;;;;;2.30;1.80;;;24.50;66.00;;;;;;20771561;28;20547;-22
2021/06/21 05:00:37;;;;;;;2.50;1.50;;;24.40;65.90;;;;;;20766389;28;20064;-19
2021/06/21 05:10:38;;;;;;;2.25;1.48;;;24.40;66.30;;;;;;20756360;28;20034;-21
2021/06/21 05:20:38;;;;;;;2.20;1.00;;;24.40;66.40;;;;;;20753104;28;20045;-20
2021/06/21 05:30:39;;;;;;;2.10;0.93;;;24.20;67.40;;;;;;20771810;28;20034;-20
2021/06/21 05:40:40;;;;;;;4.40;1.30;;;24.00;68.10;;;;;;20748754;28;20057;-20
2021/06/21 05:50:41;;;;;;;3.33;1.65;;;24.00;68.30;;;;;;20719271;28;20044;-21
2021/06/21 06:00:42;;;;;;;4.20;2.13;;;23.90;68.40;;;;;;20748036;28;20371;-21
2021/06/21 06:10:43;;;;;;;3.25;1.77;;;24.00;68.40;;;;;;20799702;23;20041;-19
2021/06/21 06:20:43;;;;;;;3.80;1.73;;;23.80;69.00;;;;;;20941761;28;20032;-20
2021/06/21 06:30:44;;;;;;;4.03;1.60;;;23.80;68.50;;;;;;20967072;28;20111;-20
2021/06/21 06:40:45;;;;;;;2.45;1.90;;;23.80;68.30;;;;;;20956592;28;20032;-20
2021/06/21 06:50:45;;;;;;;3.33;1.63;;;23.90;67.70;;;;;;20966268;28;20531;-20
2021/06/21 07:00:46;;;;;;;3.55;1.45;;;23.90;67.50;;;;;;20996898;28;20481;-20
2021/06/21 07:10:46;;;;;;;3.13;1.60;;;23.80;67.40;;;;;;20973791;28;20426;-18
2021/06/21 07:20:47;;;;;;;3.53;2.00;;;23.90;67.40;;;;;;20957325;28;20029;-19
2021/06/21 07:30:48;;;;;;;5.22;2.42;;;23.90;67.40;;;;;;20913428;28;20054;-20
2021/06/21 07:40:49;;;;;;;4.95;2.28;;;24.00;67.10;;;;;;20932755;28;20112;-19
2021/06/21 07:50:49;;;;;;;3.60;2.50;;;24.00;66.80;;;;;;20913592;28;20021;-19
2021/06/21 08:00:50;;;;;;;7.72;2.03;;;23.90;66.60;;;;;;20920408;28;20029;-18
2021/06/21 08:10:50;;;;;;;5.28;1.67;;;23.90;66.50;;;;;;20958292;28;20040;-20
2021/06/21 08:20:51;;;;;;;3.95;1.77;;;23.90;66.40;;;;;;20964777;28;20052;-19
2021/06/21 08:30:52;;;;;;;3.17;1.55;;;24.00;66.60;;;;;;20950818;28;20548;-19
2021/06/21 08:40:53;;;;;;;3.83;2.15;;;24.10;66.50;;;;;;20944148;28;20203;-19
2021/06/21 08:50:53;;;;;;;4.73;2.40;;;24.10;66.50;;;;;;20949775;28;20025;-19
2021/06/21 09:00:54;;;;;;;2.75;2.17;;;24.20;66.30;;;;;;20945179;28;20831;-19
2021/06/21 09:10:55;;;;;;;3.78;2.53;;;24.30;66.00;;;;;;20950792;28;20032;-21
2021/06/21 09:21:28;;;;;;;3.00;2.40;;;24.30;66.20;;;;;;20929053;28;20035;-19
2021/06/21 09:31:28;;;;;;;4.03;2.35;;;24.40;66.20;;;;;;20937089;28;20025;-20
2021/06/21 09:41:29;;;;;;;7.50;2.53;;;24.50;66.20;;;;;;20956977;28;20056;-19
2021/06/21 09:51:38;;;;;;;3.83;2.35;;;24.50;66.60;;;;;;20957711;28;20457;-20
2021/06/21 10:01:38;;;;;;;5.80;3.40;;;24.50;66.40;;;;;;20939134;28;20029;-20
2021/06/21 10:11:45;;;;;;;6.72;2.95;;;24.60;67.10;;;;;;20940829;28;20037;-20
2021/06/21 10:21:47;;;;;;;8.73;3.17;;;24.60;67.30;;;;;;20931090;28;20116;-20
2021/06/21 10:31:49;;;;;;;5.65;2.90;;;24.60;67.00;;;;;;20930340;28;20090;-19
2021/06/21 10:42:08;;;;;;;9.63;2.63;;;24.70;66.60;;;;;;20930390;28;20062;-19
2021/06/21 10:52:36;;;;;;;3.75;2.28;;;24.70;66.70;;;;;;20936163;28;20036;-18
2021/06/21 11:02:38;;;;;;;7.45;3.78;;;24.70;66.60;;;;;;20909017;28;20473;-20
2021/06/21 11:12:41;;;;;;;10.75;4.50;;;24.70;66.70;;;;;;20929689;28;84767;-20
2021/06/21 11:22:43;;;;;;;6.80;4.10;;;24.70;67.00;;;;;;20933336;28;20036;-20
2021/06/21 11:32:59;;;;;;;5.80;3.90;;;24.70;67.40;;;;;;20965778;28;20032;-20
2021/06/21 11:43:02;;;;;;;8.57;4.35;;;24.70;67.10;;;;;;20959362;28;20032;-20
2021/06/21 11:53:03;;;;;;;7.70;4.22;;;24.70;67.30;;;;;;20914460;28;20055;-19
2021/06/21 12:03:08;;;;;;;6.07;3.63;;;24.70;67.10;;;;;;20986168;28;20025;-19
2021/06/21 12:13:09;;;;;;;10.00;4.93;;;24.70;66.80;;;;;;20946825;22;20110;-18
2021/06/21 12:23:12;;;;;;;10.00;4.50;;;24.70;66.80;;;;;;20824555;28;20049;-19
2021/06/21 12:33:37;;;;;;;6.53;3.70;;;24.70;66.90;;;;;;20808193;28;20464;-18
2021/06/21 12:43:38;;;;;;;6.40;4.35;;;24.70;66.70;;;;;;20823339;28;20562;-19
2021/06/21 12:53:44;;;;;;;5.40;3.60;;;24.70;67.20;;;;;;20810834;28;20110;-19
2021/06/21 13:03:44;;;;;;;14.43;4.63;;;24.70;68.10;;;;;;20817360;28;20044;-19
2021/06/21 13:13:48;;;;;;;11.48;4.35;;;24.80;69.00;;;;;;20820133;28;20403;-18
2021/06/21 13:23:50;;;;;;;15.15;4.10;;;24.80;69.70;;;;;;20820358;28;20061;-18
2021/06/21 13:33:51;;;;;;;10.13;4.60;;;24.80;69.20;;;;;;20820015;28;20104;-18
2021/06/21 13:43:52;;;;;;;15.50;4.78;;;24.80;69.10;;;;;;20820289;28;20059;-19
2021/06/21 13:53:52;;;;;;;19.88;5.95;;;24.80;69.20;;;;;;20821437;28;20104;-20
2021/06/21 14:03:55;;;;;;;8.23;3.13;;;24.90;69.50;;;;;;20820060;28;20485;-19
2021/06/21 14:13:56;;;;;;;13.68;3.75;;;24.90;69.40;;;;;;20816751;28;20029;-19
2021/06/21 14:23:58;;;;;;;10.80;3.50;;;24.90;69.80;;;;;;20819534;28;20032;-20
2021/06/21 14:33:59;;;;;;;11.02;3.80;;;24.90;70.20;;;;;;20795120;28;20034;-19
2021/06/21 14:44:01;;;;;;;10.53;3.23;;;24.90;70.80;;;;;;20800498;28;20037;-19
2021/06/21 14:54:02;;;;;;;8.63;4.10;;;24.90;71.20;;;;;;20796903;28;20044;-20
2021/06/21 15:04:02;;;;;;;5.13;3.03;;;24.90;71.40;;;;;;20811502;28;20030;-19
2021/06/21 15:14:03;;;;;;;6.95;3.85;;;24.90;71.10;;;;;;20820989;28;20532;-19
2021/06/21 15:24:05;;;;;;;10.93;3.43;;;25.00;70.80;;;;;;20836580;28;20061;-19
2021/06/21 15:34:06;;;;;;;25.38;3.80;;;24.90;71.10;;;;;;20820261;28;20040;-19
2021/06/21 15:44:07;;;;;;;26.33;5.90;;;24.90;70.90;;;;;;20819561;28;20026;-20
2021/06/21 15:54:07;;;;;;;14.60;4.00;;;25.00;71.00;;;;;;20823703;28;20109;-20
2021/06/21 16:04:08;;;;;;;29.85;6.20;;;25.50;69.50;;;;;;20836236;28;20490;-19
2021/06/21 16:14:09;;;;;;;5.05;4.45;;;25.20;69.40;;;;;;20831173;28;20041;-19
2021/06/21 16:24:09;;;;;;;6.68;6.00;;;24.90;66.80;;;;;;20757830;28;20406;-19
2021/06/21 16:34:10;;;;;;;11.05;6.13;;;24.50;66.00;;;;;;20801895;28;20064;-18
2021/06/21 16:44:10;;;;;;;6.15;5.47;;;24.50;65.70;;;;;;20816977;28;20037;-18
2021/06/21 16:54:11;;;;;;;7.07;6.38;;;24.50;65.60;;;;;;20826532;28;20021;-18
2021/06/21 17:04:12;;;;;;;4.90;4.18;;;24.30;64.80;;;;;;20809047;28;20083;-18
2021/06/21 17:14:12;;;;;;;6.63;4.15;;;24.30;65.50;;;;;;20820263;28;20061;-20
2021/06/21 17:24:13;;;;;;;3.85;2.85;;;24.20;65.60;;;;;;20820656;28;20468;-20
2021/06/21 17:34:14;;;;;;;7.65;1.60;;;24.00;65.60;;;;;;20820731;28;20033;-19
2021/06/21 17:44:14;;;;;;;1.33;0.90;;;23.50;64.80;;;;;;20812014;28;20030;-21
2021/06/21 17:54:15;;;;;;;1.95;0.90;;;23.40;64.30;;;;;;20801995;28;20029;-19
2021/06/21 18:04:15;;;;;;;2.72;0.60;;;23.60;64.00;;;;;;20818142;28;20037;-19
2021/06/21 18:14:16;;;;;;;0.95;0.35;;;23.50;62.80;;;;;;20809755;28;20033;-19
2021/06/21 18:24:17;;;;;;;1.13;0.30;;;23.40;62.30;;;;;;20813664;28;20022;-20
2021/06/21 18:34:17;;;;;;;0.57;0.30;;;23.30;61.70;;;;;;20809271;28;20531;-20
2021/06/21 18:44:18;;;;;;;1.10;0.30;;;23.10;61.20;;;;;;20798954;28;20521;-20
2021/06/21 18:54:19;;;;;;;7.15;0.47;;;23.20;61.50;;;;;;20807518;28;20041;-20
2021/06/21 19:04:19;;;;;;;2.28;0.30;;;23.10;61.60;;;;;;20817084;28;20041;-20
2021/06/21 19:14:23;;;;;;;2.78;0.38;;;23.10;61.30;;;;;;20815530;28;20075;-20
2021/06/21 19:24:25;;;;;;;2.08;0.38;;;23.00;61.40;;;;;;20820561;28;20037;-25
2021/06/21 19:34:26;;;;;;;7.15;1.02;;;23.00;61.30;;;;;;20782209;28;20026;-21
2021/06/21 19:44:26;;;;;;;2.67;0.35;;;23.10;62.20;;;;;;20745924;28;20109;-21
2021/06/21 19:54:27;;;;;;;5.97;0.67;;;23.20;63.80;;;;;;20748361;28;20025;-21
2021/06/21 20:04:31;;;;;;;2.35;0.60;;;23.30;64.00;;;;;;20769242;28;20508;-21
2021/06/21 20:14:34;;;;;;;6.75;0.77;;;23.40;64.60;;;;;;20759787;28;20038;-19
2021/06/21 20:24:35;;;;;;;6.88;0.70;;;23.40;64.90;;;;;;20760256;28;20123;-20
2021/06/21 20:34:49;;;;;;;6.97;0.75;;;23.40;65.50;;;;;;20754033;28;20077;-19
2021/06/21 20:44:49;;;;;;;6.40;0.80;;;23.50;65.20;;;;;;20753377;28;20037;-20
2021/06/21 20:54:50;;;;;;;5.07;0.63;;;23.50;65.40;;;;;;20745149;28;20032;-19
2021/06/21 21:04:51;;;;;;;8.90;0.82;;;23.50;65.00;;;;;;20770831;28;20025;-20
2021/06/21 21:14:51;;;;;;;2.95;0.55;;;23.50;64.70;;;;;;20826851;28;20048;-20
2021/06/21 21:24:52;;;;;;;3.10;0.80;;;23.50;65.10;;;;;;20826320;28;20091;-20
2021/06/21 21:34:53;;;;;;;9.95;0.88;;;23.50;65.40;;;;;;20821048;28;20053;-20
2021/06/21 21:44:53;;;;;;;6.97;1.77;;;23.50;66.00;;;;;;20822448;28;20071;-19
2021/06/21 21:54:54;;;;;;;5.05;1.20;;;23.50;66.40;;;;;;20791990;28;20037;-20
2021/06/21 22:04:54;;;;;;;5.90;1.52;;;23.60;66.30;;;;;;20822398;28;20051;-20
2021/06/21 22:14:55;;;;;;;9.57;2.10;;;23.60;66.80;;;;;;20821497;28;20029;-20
2021/06/21 22:24:55;;;;;;;10.80;1.75;;;23.60;67.30;;;;;;20820225;28;20108;-20
2021/06/21 22:34:56;;;;;;;6.18;1.75;;;23.60;67.60;;;;;;20821379;28;20035;-21
2021/06/21 22:44:57;;;;;;;3.65;1.00;;;23.60;67.90;;;;;;20821751;28;20086;-20
2021/06/21 22:54:57;;;;;;;4.07;1.40;;;23.60;68.00;;;;;;20821324;28;20060;-20
2021/06/21 23:04:58;;;;;;;4.13;1.20;;;23.60;68.10;;;;;;20819535;28;20077;-20
2021/06/21 23:14:58;;;;;;;3.28;0.82;;;23.60;68.30;;;;;;20820646;28;20044;-20
2021/06/21 23:24:59;;;;;;;4.03;0.98;;;23.60;68.30;;;;;;20820954;28;20033;-19
2021/06/21 23:35:00;;;;;;;8.57;1.25;;;23.60;68.30;;;;;;20825021;28;20033;-19
2021/06/21 23:45:02;;;;;;;3.00;0.75;;;23.60;68.40;;;;;;20817946;28;20026;-20
2021/06/21 23:55:12;;;;;;;3.25;0.90;;;23.60;68.50;;;;;;20811138;28;20034;-20
